Time;durP1;ratioP1;P1;durP2;ratioP2;P2;SDS_P1;SDS_P2;PMS_P1;PMS_P2;Temp;Humidity;BMP_temperature;BMP_pressure;BME280_temperature;BME280_humidity;BME280_pressure;Samples;Min_cycle;Max_cycle;Signal;HPM_P1;HPM_P2
2021/04/21 00:01:29;;;;;;;14.77;13.23;;;6.20;99.90;;;;;;5011911;28;20435;-74
2021/04/21 00:03:55;;;;;;;15.23;13.70;;;6.10;99.90;;;;;;5011759;28;20022;-74
2021/04/21 00:06:21;;;;;;;15.27;13.75;;;6.10;99.90;;;;;;5011898;28;20014;-74
2021/04/21 00:08:48;;;;;;;14.45;12.95;;;6.00;99.90;;;;;;5011920;28;20036;-71
2021/04/21 00:11:16;;;;;;;15.02;12.38;;;6.10;99.90;;;;;;5012169;28;20535;-73
2021/04/21 00:13:43;;;;;;;14.80;12.55;;;6.30;99.90;;;;;;5010409;28;20029;-73
2021/04/21 00:16:11;;;;;;;13.88;12.40;;;6.60;99.90;;;;;;5011882;28;20479;-74
2021/04/21 00:18:40;;;;;;;14.52;12.95;;;6.60;99.90;;;;;;5011789;28;20030;-73
2021/04/21 00:21:06;;;;;;;15.75;13.57;;;6.60;99.90;;;;;;5010348;28;20096;-70
2021/04/21 00:23:34;;;;;;;17.15;14.52;;;6.60;99.90;;;;;;5011544;28;20495;-72
2021/04/21 00:26:02;;;;;;;17.40;14.02;;;6.60;99.90;;;;;;5011831;28;20042;-72
2021/04/21 00:28:33;;;;;;;16.30;13.80;;;6.40;99.90;;;;;;5011691;28;20112;-72
2021/04/21 00:31:03;;;;;;;16.42;13.88;;;6.30;99.90;;;;;;5011675;28;20029;-72
2021/04/21 00:33:29;;;;;;;15.43;13.75;;;6.30;99.90;;;;;;5010151;28;20480;-72
2021/04/21 00:35:55;;;;;;;15.57;13.88;;;6.20;99.90;;;;;;5018432;28;20053;-72
2021/04/21 00:38:22;;;;;;;17.50;13.18;;;6.00;99.90;;;;;;5011623;28;20033;-72
2021/04/21 00:40:59;;;;;;;16.92;14.38;;;5.90;99.90;;;;;;5011406;28;20026;-72
2021/04/21 00:43:37;;;;;;;17.27;14.27;;;5.90;99.90;;;;;;5013441;28;20108;-73
2021/04/21 00:46:18;;;;;;;17.48;14.18;;;6.00;99.90;;;;;;5017116;28;20448;-73
2021/04/21 00:49:10;;;;;;;17.70;14.20;;;6.10;99.90;;;;;;5009421;28;20132;-73
2021/04/21 00:51:52;;;;;;;14.43;12.95;;;5.80;99.90;;;;;;5007858;28;20026;-73
2021/04/21 00:54:37;;;;;;;15.13;13.52;;;5.90;99.90;;;;;;5013146;28;20030;-73
2021/04/21 00:57:43;;;;;;;15.25;13.13;;;5.80;99.90;;;;;;5014615;28;20045;-73
2021/04/21 01:00:09;;;;;;;15.23;13.73;;;5.70;99.90;;;;;;5011939;28;20030;-73
2021/04/21 01:02:52;;;;;;;16.23;12.63;;;5.70;99.90;;;;;;5014558;28;20542;-72
2021/04/21 01:05:22;;;;;;;15.15;13.02;;;5.80;99.90;;;;;;5013532;28;20022;-72
2021/04/21 01:07:51;;;;;;;13.88;12.35;;;5.60;99.90;;;;;;5015506;28;20018;-72
2021/04/21 01:10:18;;;;;;;15.85;12.88;;;5.50;99.90;;;;;;5016047;28;20033;-73
2021/04/21 01:12:47;;;;;;;16.30;13.50;;;5.50;99.90;;;;;;5019299;28;20033;-74
2021/04/21 01:15:15;;;;;;;14.57;12.80;;;5.40;99.90;;;;;;5017205;28;20081;-73
2021/04/21 01:17:42;;;;;;;14.00;12.52;;;5.30;99.90;;;;;;5015942;28;20096;-74
2021/04/21 01:20:18;;;;;;;14.50;12.57;;;5.40;99.90;;;;;;5015054;28;20044;-73
2021/04/21 01:22:47;;;;;;;14.10;12.65;;;5.40;99.90;;;;;;5014820;28;20026;-74
2021/04/21 01:25:39;;;;;;;13.50;12.20;;;5.40;99.90;;;;;;5015850;28;20018;-74
2021/04/21 01:28:14;;;;;;;13.40;11.95;;;5.50;99.90;;;;;;5016083;28;20809;-74
2021/04/21 01:30:42;;;;;;;14.45;11.93;;;5.60;99.90;;;;;;5008029;28;20112;-72
2021/04/21 01:33:21;;;;;;;14.38;12.60;;;5.50;99.90;;;;;;5014694;28;20018;-72
2021/04/21 01:36:05;;;;;;;14.30;12.80;;;5.50;99.90;;;;;;5021478;28;20018;-71
2021/04/21 01:38:32;;;;;;;14.80;12.30;;;5.70;99.90;;;;;;5014831;28;20394;-72
2021/04/21 01:41:04;;;;;;;15.90;12.65;;;5.80;99.90;;;;;;5014557;28;20022;-72
2021/04/21 01:43:53;;;;;;;15.48;13.10;;;5.80;99.90;;;;;;5014491;28;20018;-74
2021/04/21 01:46:21;;;;;;;16.08;13.35;;;5.80;99.90;;;;;;5013748;28;20353;-73
2021/04/21 01:48:49;;;;;;;14.73;13.23;;;5.80;99.90;;;;;;5008020;28;20010;-73
2021/04/21 01:51:25;;;;;;;14.45;12.93;;;5.70;99.90;;;;;;5014223;28;20473;-73
2021/04/21 01:54:00;;;;;;;15.85;12.98;;;5.80;99.90;;;;;;5014371;28;20034;-73
2021/04/21 01:56:32;;;;;;;15.60;13.80;;;5.70;99.90;;;;;;5014498;28;20061;-74
2021/04/21 01:59:07;;;;;;;17.50;15.55;;;5.60;99.90;;;;;;5014505;28;20033;-73
2021/04/21 02:02:06;;;;;;;17.17;15.38;;;5.50;99.90;;;;;;5006459;28;20022;-73
2021/04/21 02:04:53;;;;;;;16.25;14.55;;;5.50;99.90;;;;;;5012889;28;20097;-72
2021/04/21 02:07:32;;;;;;;17.95;13.93;;;5.50;99.90;;;;;;5014357;28;20080;-73
2021/04/21 02:10:42;;;;;;;16.05;13.85;;;5.20;99.90;;;;;;5001572;28;20026;-73
2021/04/21 02:13:19;;;;;;;14.52;13.02;;;5.10;99.90;;;;;;5001339;28;20121;-73
2021/04/21 02:16:07;;;;;;;14.48;12.65;;;5.00;99.90;;;;;;5000760;28;20026;-74
2021/04/21 02:18:57;;;;;;;17.02;14.57;;;4.90;99.90;;;;;;5014274;28;20044;-74
2021/04/21 02:21:43;;;;;;;16.35;14.50;;;4.80;99.90;;;;;;5013933;28;20030;-73
2021/04/21 02:24:29;;;;;;;17.05;14.48;;;4.90;99.90;;;;;;5003534;28;20050;-73
2021/04/21 02:27:33;;;;;;;15.32;13.70;;;5.00;99.90;;;;;;5012643;28;20030;-74
2021/04/21 02:30:13;;;;;;;17.65;13.85;;;5.20;99.90;;;;;;5013944;28;20029;-73
2021/04/21 02:33:00;;;;;;;16.77;13.93;;;5.30;99.90;;;;;;5015175;28;20025;-74
2021/04/21 02:36:08;;;;;;;15.43;13.15;;;5.30;99.90;;;;;;4995954;28;20026;-74
2021/04/21 02:38:54;;;;;;;15.45;13.63;;;5.40;99.90;;;;;;5004980;28;20029;-74
2021/04/21 02:41:40;;;;;;;16.10;13.90;;;5.30;99.90;;;;;;5013637;28;20053;-74
2021/04/21 02:44:12;;;;;;;16.13;13.13;;;5.20;99.90;;;;;;5012348;28;20034;-73
2021/04/21 02:47:02;;;;;;;16.45;13.80;;;5.00;99.90;;;;;;5013726;28;20104;-74
2021/04/21 02:49:46;;;;;;;18.38;14.18;;;4.80;99.90;;;;;;5013798;28;20022;-73
2021/04/21 02:52:46;;;;;;;19.60;15.43;;;4.50;99.90;;;;;;5012619;28;20026;-73
2021/04/21 02:55:41;;;;;;;16.55;14.00;;;4.50;99.90;;;;;;5014036;28;20072;-73
2021/04/21 02:58:43;;;;;;;16.30;14.43;;;4.50;99.90;;;;;;5002206;28;20543;-73
2021/04/21 03:01:49;;;;;;;15.80;14.02;;;4.50;99.90;;;;;;5002084;28;20030;-73
2021/04/21 03:04:23;;;;;;;19.50;16.00;;;4.40;99.90;;;;;;5006996;28;20019;-74
2021/04/21 03:06:50;;;;;;;18.25;16.33;;;4.30;99.90;;;;;;5006429;28;20041;-74
2021/04/21 03:09:30;;;;;;;20.30;15.60;;;4.30;99.90;;;;;;5006593;28;20036;-74
2021/04/21 03:11:58;;;;;;;16.35;14.73;;;4.30;99.90;;;;;;5008773;28;20034;-74
2021/04/21 03:14:28;;;;;;;18.05;15.02;;;4.40;99.90;;;;;;5008941;28;20040;-73
2021/04/21 03:16:59;;;;;;;18.58;15.32;;;4.40;99.90;;;;;;5017796;28;20112;-74
2021/04/21 03:19:56;;;;;;;21.65;14.82;;;4.30;99.90;;;;;;5013086;28;20025;-74
2021/04/21 03:22:24;;;;;;;19.13;14.82;;;4.30;99.90;;;;;;5004018;28;20038;-75
2021/04/21 03:25:10;;;;;;;19.08;15.68;;;4.20;99.90;;;;;;5019481;28;20488;-73
2021/04/21 03:27:41;;;;;;;22.50;18.23;;;4.20;99.90;;;;;;5013439;28;20056;-73
2021/04/21 03:30:16;;;;;;;20.70;18.35;;;4.10;99.90;;;;;;5014944;28;20033;-75
2021/04/21 03:33:12;;;;;;;18.33;15.93;;;4.10;99.90;;;;;;5013084;28;20026;-75
2021/04/21 03:35:39;;;;;;;19.42;16.33;;;4.00;99.90;;;;;;5022116;28;20037;-74
2021/04/21 03:38:06;;;;;;;20.55;17.38;;;4.20;99.90;;;;;;5015561;28;20030;-74
2021/04/21 03:40:33;;;;;;;23.70;18.92;;;4.10;99.90;;;;;;5013563;28;20468;-75
2021/04/21 03:43:02;;;;;;;24.00;20.77;;;4.20;99.90;;;;;;5012773;28;20049;-75
2021/04/21 03:45:29;;;;;;;21.85;18.13;;;4.20;99.90;;;;;;5000992;28;20028;-74
2021/04/21 03:47:55;;;;;;;22.70;18.50;;;4.10;99.90;;;;;;5005128;28;20671;-75
2021/04/21 03:50:23;;;;;;;20.80;18.15;;;4.20;99.90;;;;;;5003419;28;20032;-75
2021/04/21 03:52:58;;;;;;;22.20;17.15;;;4.10;99.90;;;;;;5012628;28;20582;-75
2021/04/21 03:55:25;;;;;;;19.53;15.13;;;4.20;99.90;;;;;;5012282;28;20030;-74
2021/04/21 03:57:56;;;;;;;16.60;14.40;;;4.30;99.90;;;;;;5012653;28;20030;-76
2021/04/21 04:00:22;;;;;;;18.65;15.77;;;4.30;99.90;;;;;;5011126;28;20026;-75
2021/04/21 04:02:58;;;;;;;18.23;16.33;;;4.10;99.90;;;;;;5012450;28;20391;-74
2021/04/21 04:05:27;;;;;;;;;;;4.30;99.90;;;;;;5011230;28;20029;-73
2021/04/21 04:07:56;;;;;;;21.05;16.50;;;4.30;99.90;;;;;;5012267;28;20417;-74
2021/04/21 04:10:24;;;;;;;19.67;16.52;;;4.30;99.90;;;;;;5010961;28;20472;-74
2021/04/21 04:12:52;;;;;;;21.63;16.63;;;4.30;99.90;;;;;;5002671;28;20088;-75
2021/04/21 04:15:18;;;;;;;22.25;17.58;;;4.30;99.90;;;;;;5005667;28;20160;-75
2021/04/21 04:17:47;;;;;;;26.40;17.13;;;4.30;99.90;;;;;;5003658;28;20103;-74
2021/04/21 04:20:15;;;;;;;21.58;17.75;;;4.30;99.90;;;;;;5000299;28;20029;-74
2021/04/21 04:22:44;;;;;;;20.52;17.33;;;4.30;99.90;;;;;;5011917;28;20113;-73
2021/04/21 04:25:12;;;;;;;20.60;17.77;;;4.30;99.90;;;;;;5012483;28;20022;-74
2021/04/21 04:27:39;;;;;;;20.83;17.40;;;4.40;99.90;;;;;;5012870;28;20026;-74
2021/04/21 04:30:06;;;;;;;23.05;19.92;;;4.50;99.90;;;;;;5011027;28;20030;-75
2021/04/21 04:32:37;;;;;;;23.05;18.88;;;4.70;99.90;;;;;;5011926;28;20038;-74
2021/04/21 04:35:03;;;;;;;22.40;19.45;;;4.80;99.90;;;;;;4992046;28;20496;-74
2021/04/21 04:37:30;;;;;;;21.88;18.27;;;4.70;99.90;;;;;;5004181;28;20038;-75
2021/04/21 04:39:55;;;;;;;23.13;19.98;;;4.70;99.90;;;;;;5002215;28;20100;-75
2021/04/21 04:42:22;;;;;;;22.70;19.65;;;4.60;99.90;;;;;;5014626;28;20652;-75
2021/04/21 04:44:49;;;;;;;25.13;20.15;;;4.80;99.90;;;;;;5014881;28;20431;-74
2021/04/21 04:47:23;;;;;;;20.67;18.38;;;4.70;99.90;;;;;;5015909;28;20028;-73
2021/04/21 04:49:55;;;;;;;23.70;19.33;;;4.70;99.90;;;;;;5015666;28;20029;-73
2021/04/21 04:52:24;;;;;;;24.30;19.83;;;4.70;99.90;;;;;;5015874;28;20026;-74
2021/04/21 04:54:50;;;;;;;21.80;17.92;;;4.90;99.90;;;;;;5015533;28;20018;-74
2021/04/21 04:57:20;;;;;;;20.02;17.88;;;4.90;99.90;;;;;;5015798;28;20029;-74
2021/04/21 04:59:49;;;;;;;20.90;18.45;;;4.70;99.90;;;;;;5015745;28;20022;-75
2021/04/21 05:02:18;;;;;;;20.35;17.38;;;4.80;99.90;;;;;;5015448;28;20030;-74
2021/04/21 05:05:02;;;;;;;20.88;17.20;;;4.70;99.90;;;;;;5014156;28;20396;-74
2021/04/21 05:07:35;;;;;;;20.17;18.02;;;4.90;99.90;;;;;;5015513;28;20029;-75
2021/04/21 05:10:13;;;;;;;19.92;17.05;;;5.00;99.90;;;;;;5014187;28;20096;-73
2021/04/21 05:12:42;;;;;;;20.75;18.05;;;5.10;99.90;;;;;;5015429;28;20033;-75
2021/04/21 05:15:36;;;;;;;22.08;18.42;;;5.10;99.90;;;;;;5015229;28;20472;-73
2021/04/21 05:18:21;;;;;;;22.95;18.08;;;5.20;99.90;;;;;;5015271;28;20034;-74
2021/04/21 05:20:57;;;;;;;23.15;19.00;;;5.20;99.90;;;;;;5004516;28;20117;-74
2021/04/21 05:23:29;;;;;;;;;;;5.10;99.90;;;;;;5014231;28;20511;-74
2021/04/21 05:26:40;;;;;;;23.95;18.92;;;5.00;99.90;;;;;;5015338;28;20268;-73
2021/04/21 05:29:15;;;;;;;24.85;18.63;;;5.00;99.90;;;;;;5005976;28;20025;-73
2021/04/21 05:32:05;;;;;;;20.88;18.63;;;5.00;99.90;;;;;;5015136;28;20026;-73
2021/04/21 05:35:10;;;;;;;23.15;18.67;;;5.00;99.90;;;;;;5014889;28;20121;-73
2021/04/21 05:38:13;;;;;;;21.45;17.98;;;5.00;99.90;;;;;;5014755;28;20032;-73
2021/04/21 05:40:57;;;;;;;20.55;17.73;;;5.20;99.90;;;;;;5013816;28;20113;-73
2021/04/21 05:43:31;;;;;;;23.02;18.42;;;5.30;99.90;;;;;;5002420;28;20037;-73
2021/04/21 05:46:15;;;;;;;22.52;19.83;;;5.40;99.90;;;;;;5015030;28;20022;-73
2021/04/21 05:49:16;;;;;;;20.88;18.02;;;5.50;99.90;;;;;;5013717;28;20018;-73
2021/04/21 05:52:07;;;;;;;22.95;18.45;;;5.50;99.90;;;;;;5013831;28;20029;-74
2021/04/21 05:54:33;;;;;;;22.40;19.70;;;5.60;99.90;;;;;;5002185;28;20495;-73
2021/04/21 05:57:24;;;;;;;26.45;20.75;;;5.40;99.90;;;;;;5014813;28;20071;-72
2021/04/21 06:00:06;;;;;;;24.38;20.58;;;5.40;99.90;;;;;;4998470;28;20033;-73
2021/04/21 06:02:34;;;;;;;26.25;20.65;;;5.70;99.90;;;;;;5013440;28;20022;-73
2021/04/21 06:05:12;;;;;;;23.25;19.73;;;5.60;99.90;;;;;;5015152;28;20109;-73
2021/04/21 06:07:39;;;;;;;23.70;21.00;;;6.00;99.90;;;;;;5014940;28;20037;-73
2021/04/21 06:10:26;;;;;;;24.00;19.60;;;6.20;99.90;;;;;;5014858;28;20037;-74
2021/04/21 06:12:55;;;;;;;25.58;19.58;;;6.50;99.90;;;;;;5025852;28;20053;-72
2021/04/21 06:15:23;;;;;;;24.17;20.70;;;6.50;99.90;;;;;;5012887;28;20120;-75
2021/04/21 06:17:54;;;;;;;24.05;19.90;;;6.30;99.90;;;;;;5014796;28;20052;-73
2021/04/21 06:20:32;;;;;;;25.33;20.17;;;6.50;99.90;;;;;;5014725;28;20108;-73
2021/04/21 06:23:00;;;;;;;24.88;19.40;;;6.60;99.90;;;;;;5001111;28;20023;-73
2021/04/21 06:25:26;;;;;;;21.70;19.40;;;6.80;99.90;;;;;;5013829;28;20026;-74
2021/04/21 06:28:09;;;;;;;25.13;20.15;;;6.80;99.90;;;;;;5013064;28;20050;-75
2021/04/21 06:30:35;;;;;;;21.50;18.83;;;6.90;99.90;;;;;;5003430;28;20076;-73
2021/04/21 06:33:02;;;;;;;20.50;18.30;;;7.00;99.90;;;;;;5014001;28;20127;-75
2021/04/21 06:35:30;;;;;;;21.45;18.67;;;6.90;99.90;;;;;;5013835;28;20054;-75
2021/04/21 06:37:56;;;;;;;23.95;20.27;;;7.00;99.90;;;;;;5013807;28;20021;-74
2021/04/21 06:40:26;;;;;;;21.83;18.80;;;7.10;99.90;;;;;;5013812;28;20032;-75
2021/04/21 06:42:54;;;;;;;21.98;18.63;;;7.20;99.90;;;;;;5013915;28;20026;-74
2021/04/21 06:45:24;;;;;;;21.50;19.23;;;7.30;99.90;;;;;;5013535;28;20419;-74
2021/04/21 06:47:51;;;;;;;20.70;18.48;;;7.40;99.90;;;;;;5012334;28;20022;-74
2021/04/21 06:50:16;;;;;;;22.75;18.55;;;7.50;99.90;;;;;;5013799;28;20537;-74
2021/04/21 06:52:43;;;;;;;23.83;19.35;;;7.50;99.90;;;;;;5013454;28;20148;-74
2021/04/21 06:55:15;;;;;;;20.90;17.98;;;7.60;99.90;;;;;;5013582;28;20029;-75
2021/04/21 06:57:41;;;;;;;22.40;18.52;;;7.70;99.90;;;;;;5013498;28;20048;-74
2021/04/21 07:00:18;;;;;;;24.38;19.73;;;7.90;99.90;;;;;;5012112;28;20086;-75
2021/04/21 07:02:50;;;;;;;25.42;19.48;;;7.90;99.90;;;;;;5013383;28;20026;-75
2021/04/21 07:05:35;;;;;;;23.95;19.33;;;8.00;99.90;;;;;;5013288;28;20046;-74
2021/04/21 07:08:09;;;;;;;20.05;17.83;;;8.10;99.90;;;;;;5013340;28;20053;-74
2021/04/21 07:10:38;;;;;;;20.05;17.10;;;8.10;99.90;;;;;;5013188;28;20492;-74
2021/04/21 07:13:06;;;;;;;21.42;17.52;;;8.20;99.90;;;;;;5013420;28;20033;-70
2021/04/21 07:15:34;;;;;;;19.77;17.10;;;8.40;99.90;;;;;;5012797;28;20117;-69
2021/04/21 07:18:01;;;;;;;22.95;18.02;;;8.40;99.90;;;;;;5013218;28;20383;-73
2021/04/21 07:20:27;;;;;;;18.58;16.67;;;8.70;99.90;;;;;;5006808;28;20061;-72
2021/04/21 07:22:54;;;;;;;21.13;17.92;;;8.90;99.90;;;;;;5006312;28;20025;-70
2021/04/21 07:25:20;;;;;;;21.13;16.30;;;8.90;99.90;;;;;;5012802;28;20026;-72
2021/04/21 07:27:51;;;;;;;20.20;17.67;;;9.00;99.90;;;;;;5013262;28;20025;-72
2021/04/21 07:30:28;;;;;;;19.48;16.70;;;9.20;99.90;;;;;;4998727;28;20030;-72
2021/04/21 07:32:55;;;;;;;18.15;16.25;;;9.30;99.90;;;;;;5013011;28;20033;-71
2021/04/21 07:35:23;;;;;;;18.70;15.10;;;9.60;99.90;;;;;;5021241;28;20057;-71
2021/04/21 07:37:50;;;;;;;18.10;15.82;;;9.90;99.90;;;;;;5016656;28;20057;-69
2021/04/21 07:40:36;;;;;;;19.65;16.02;;;10.00;99.90;;;;;;5019305;28;20026;-69
2021/04/21 07:43:12;;;;;;;19.92;15.75;;;9.80;99.90;;;;;;5013179;28;20037;-69
2021/04/21 07:45:55;;;;;;;18.45;15.10;;;9.80;99.90;;;;;;5012525;28;20021;-69
2021/04/21 07:48:32;;;;;;;18.23;15.07;;;10.00;99.90;;;;;;5012565;28;20026;-68
2021/04/21 07:50:58;;;;;;;17.35;15.30;;;10.10;99.90;;;;;;5011056;28;20030;-69
2021/04/21 07:53:23;;;;;;;16.98;14.73;;;10.20;99.90;;;;;;5012576;28;20026;-72
2021/04/21 07:55:49;;;;;;;16.98;13.82;;;10.20;99.90;;;;;;4999136;28;20037;-71
2021/04/21 07:58:23;;;;;;;17.95;13.90;;;10.40;99.90;;;;;;5001567;28;20030;-72
2021/04/21 08:00:48;;;;;;;17.05;15.32;;;10.50;99.90;;;;;;5005925;28;20029;-71
2021/04/21 08:03:26;;;;;;;16.75;13.70;;;10.60;99.90;;;;;;5004880;28;20388;-70
2021/04/21 08:05:53;;;;;;;22.33;12.82;;;10.60;99.90;;;;;;4998363;28;20073;-71
2021/04/21 08:08:29;;;;;;;12.70;11.13;;;10.80;99.90;;;;;;5011012;28;20480;-71
2021/04/21 08:10:55;;;;;;;16.13;13.95;;;10.90;99.90;;;;;;5012028;28;20048;-71
2021/04/21 08:13:43;;;;;;;16.65;14.02;;;11.00;99.90;;;;;;5011848;28;20377;-72
2021/04/21 08:16:32;;;;;;;19.23;14.23;;;10.90;99.90;;;;;;5012187;28;20026;-71
2021/04/21 08:18:59;;;;;;;19.80;13.73;;;10.90;99.90;;;;;;5000797;28;20369;-71
2021/04/21 08:21:48;;;;;;;17.50;14.30;;;11.00;99.90;;;;;;4997505;28;20034;-71
2021/04/21 08:24:15;;;;;;;16.73;14.10;;;11.20;99.90;;;;;;5011910;28;20033;-71
2021/04/21 08:26:46;;;;;;;14.75;12.93;;;11.20;99.90;;;;;;5012126;28;20026;-71
2021/04/21 08:29:14;;;;;;;14.82;11.88;;;11.20;99.90;;;;;;5010865;28;20400;-71
2021/04/21 08:31:43;;;;;;;13.52;11.65;;;11.40;99.90;;;;;;5011843;28;20022;-71
2021/04/21 08:34:08;;;;;;;12.38;11.07;;;11.50;99.90;;;;;;5011732;28;20519;-71
2021/04/21 08:36:35;;;;;;;13.40;10.68;;;11.50;99.90;;;;;;5023803;28;20061;-71
2021/04/21 08:39:01;;;;;;;14.57;11.38;;;11.60;99.90;;;;;;5011962;28;20048;-71
2021/04/21 08:41:28;;;;;;;13.93;11.15;;;11.70;99.90;;;;;;5011580;28;20488;-71
2021/04/21 08:43:55;;;;;;;13.13;11.65;;;11.80;99.90;;;;;;5011811;28;20036;-71
2021/04/21 08:46:21;;;;;;;12.35;11.05;;;12.10;99.90;;;;;;5011961;28;20452;-71
2021/04/21 08:48:47;;;;;;;15.20;11.25;;;12.30;99.90;;;;;;5011707;28;20022;-71
2021/04/21 08:51:16;;;;;;;12.32;10.70;;;12.50;99.90;;;;;;5011573;28;20547;-71
2021/04/21 08:53:45;;;;;;;13.00;11.43;;;12.60;99.90;;;;;;5011548;28;20030;-72
2021/04/21 08:56:15;;;;;;;13.13;11.70;;;12.80;99.90;;;;;;4998932;28;20102;-71
2021/04/21 08:58:41;;;;;;;12.18;10.65;;;13.00;99.90;;;;;;5011700;28;20109;-71
2021/04/21 09:01:07;;;;;;;12.55;10.55;;;13.00;99.90;;;;;;5011660;28;20105;-72
2021/04/21 09:03:35;;;;;;;14.88;10.98;;;13.10;99.90;;;;;;5011734;28;20045;-72
2021/04/21 09:06:02;;;;;;;13.15;11.45;;;13.00;99.90;;;;;;5010372;28;20112;-71
2021/04/21 09:08:29;;;;;;;11.88;10.25;;;13.00;99.90;;;;;;5011742;28;20022;-71
2021/04/21 09:10:56;;;;;;;15.02;10.27;;;13.10;99.90;;;;;;5011616;28;20021;-71
2021/04/21 09:13:21;;;;;;;11.98;10.15;;;13.20;99.90;;;;;;5011542;28;20018;-71
2021/04/21 09:15:47;;;;;;;12.10;10.73;;;13.20;99.90;;;;;;5011493;28;20053;-71
2021/04/21 09:18:13;;;;;;;12.23;10.93;;;13.30;99.90;;;;;;5011444;28;20384;-71
2021/04/21 09:20:45;;;;;;;14.50;11.32;;;13.40;99.90;;;;;;5011364;28;20476;-71
2021/04/21 09:23:14;;;;;;;10.75;9.65;;;13.50;99.90;;;;;;5011446;28;20100;-72
2021/04/21 09:25:53;;;;;;;12.15;10.82;;;13.70;99.90;;;;;;5012420;28;20108;-72
2021/04/21 09:28:21;;;;;;;12.38;10.30;;;13.50;99.90;;;;;;5015325;28;20018;-70
2021/04/21 09:30:58;;;;;;;10.40;9.25;;;13.50;99.90;;;;;;5014950;28;20103;-71
2021/04/21 09:33:29;;;;;;;11.18;9.50;;;13.60;99.90;;;;;;5014913;28;20026;-71
2021/04/21 09:35:55;;;;;;;10.32;9.10;;;13.60;99.90;;;;;;5028543;28;20030;-72
2021/04/21 09:38:24;;;;;;;10.93;9.10;;;13.50;99.90;;;;;;5013793;28;20032;-71
2021/04/21 09:40:54;;;;;;;10.85;9.50;;;13.50;99.90;;;;;;5014549;28;20022;-71
2021/04/21 09:43:24;;;;;;;13.48;10.48;;;13.50;99.90;;;;;;5015275;28;20168;-72
2021/04/21 09:45:54;;;;;;;14.98;11.30;;;13.60;99.90;;;;;;5014589;28;20037;-72
2021/04/21 09:48:28;;;;;;;13.80;10.75;;;13.70;99.90;;;;;;5014788;28;20014;-72
2021/04/21 09:50:59;;;;;;;13.43;11.73;;;13.70;99.90;;;;;;5014773;28;20118;-71
2021/04/21 09:53:36;;;;;;;13.10;10.35;;;14.00;99.90;;;;;;5013397;28;20037;-72
2021/04/21 09:56:14;;;;;;;15.05;11.13;;;14.10;99.90;;;;;;5014612;28;20062;-71
2021/04/21 09:58:46;;;;;;;11.23;9.38;;;14.40;99.90;;;;;;5013176;28;20030;-71
2021/04/21 10:01:19;;;;;;;12.65;9.13;;;14.30;99.90;;;;;;5013130;28;20049;-70
2021/04/21 10:03:46;;;;;;;15.52;11.05;;;14.30;99.90;;;;;;5012965;28;20499;-72
2021/04/21 10:06:22;;;;;;;13.40;10.65;;;14.50;99.90;;;;;;5014395;28;20022;-71
2021/04/21 10:08:48;;;;;;;10.90;9.45;;;14.40;99.90;;;;;;5014251;28;20026;-72
2021/04/21 10:11:14;;;;;;;10.68;9.32;;;14.50;99.90;;;;;;5014472;28;20042;-71
2021/04/21 10:13:45;;;;;;;13.48;10.52;;;14.50;99.90;;;;;;5014024;28;20710;-71
2021/04/21 10:16:11;;;;;;;11.77;10.55;;;14.60;99.90;;;;;;5014271;28;20053;-71
2021/04/21 10:18:38;;;;;;;11.15;9.13;;;14.90;99.90;;;;;;5014226;28;20539;-71
2021/04/21 10:21:05;;;;;;;15.70;13.27;;;15.30;99.90;;;;;;5014128;28;20030;-71
2021/04/21 10:23:31;;;;;;;16.20;12.40;;;15.20;99.90;;;;;;5014037;28;20022;-71
2021/04/21 10:26:16;;;;;;;13.77;10.50;;;15.10;99.90;;;;;;5014068;28;20018;-72
2021/04/21 10:28:45;;;;;;;14.05;11.60;;;15.10;99.90;;;;;;5014113;28;20068;-72
2021/04/21 10:31:19;;;;;;;14.23;11.60;;;14.80;99.90;;;;;;5012428;28;20026;-72
2021/04/21 10:33:48;;;;;;;14.93;11.35;;;14.70;99.90;;;;;;5013757;28;20548;-72
2021/04/21 10:36:14;;;;;;;17.85;12.23;;;14.90;99.90;;;;;;5026563;28;20057;-72
2021/04/21 10:38:43;;;;;;;18.13;12.35;;;15.00;99.90;;;;;;5013745;28;20029;-72
2021/04/21 10:41:38;;;;;;;13.88;12.02;;;15.40;99.90;;;;;;5013453;28;20083;-72
2021/04/21 10:44:11;;;;;;;19.15;12.40;;;15.90;99.90;;;;;;5013537;28;20077;-72
2021/04/21 10:46:58;;;;;;;17.02;12.35;;;16.00;99.90;;;;;;5013608;28;20100;-72
2021/04/21 10:49:42;;;;;;;16.02;12.70;;;15.40;99.90;;;;;;5013537;28;20045;-72
2021/04/21 10:52:14;;;;;;;17.13;13.25;;;15.20;99.90;;;;;;5013425;28;20032;-72
2021/04/21 10:54:41;;;;;;;18.13;13.52;;;15.10;99.90;;;;;;5013317;28;20089;-73
2021/04/21 10:57:22;;;;;;;17.05;13.02;;;15.00;99.90;;;;;;5013468;28;20033;-72
2021/04/21 11:00:16;;;;;;;17.25;13.35;;;15.00;99.90;;;;;;5013509;28;20464;-72
2021/04/21 11:02:43;;;;;;;18.80;13.13;;;14.80;99.90;;;;;;5000440;28;20072;-72
2021/04/21 11:05:11;;;;;;;17.27;12.30;;;14.70;99.90;;;;;;5012940;28;20022;-69
2021/04/21 11:07:42;;;;;;;11.00;8.80;;;14.70;99.90;;;;;;5013392;28;20083;-73
2021/04/21 11:10:29;;;;;;;13.50;9.70;;;14.60;99.90;;;;;;5013099;28;20472;-70
2021/04/21 11:12:55;;;;;;;11.85;9.70;;;14.50;99.90;;;;;;5012726;28;20037;-72
2021/04/21 11:15:37;;;;;;;12.38;9.60;;;14.60;99.90;;;;;;5012386;28;20488;-72
2021/04/21 11:18:08;;;;;;;10.48;8.10;;;14.60;99.90;;;;;;5007700;28;20022;-74
2021/04/21 11:20:46;;;;;;;10.57;7.50;;;14.70;99.90;;;;;;5012865;28;20518;-74
2021/04/21 11:23:48;;;;;;;10.80;7.47;;;14.90;99.90;;;;;;5012919;28;20037;-73
2021/04/21 11:26:34;;;;;;;11.23;9.48;;;15.20;99.90;;;;;;5012335;28;20046;-73
2021/04/21 11:29:03;;;;;;;;;;;15.80;99.90;;;;;;5011182;28;20101;-73
2021/04/21 11:31:44;;;;;;;14.25;10.10;;;16.40;99.90;;;;;;5012735;28;19928;-73
2021/04/21 11:34:13;;;;;;;14.63;10.63;;;16.50;99.90;;;;;;5011277;28;20120;-72
2021/04/21 11:37:04;;;;;;;12.68;9.52;;;16.00;99.90;;;;;;5025692;28;20026;-73
2021/04/21 11:39:49;;;;;;;13.73;11.13;;;15.80;99.90;;;;;;5011432;28;20061;-73
2021/04/21 11:42:28;;;;;;;10.38;9.10;;;15.50;99.90;;;;;;5012463;28;20088;-72
2021/04/21 11:45:20;;;;;;;9.20;7.35;;;15.30;99.90;;;;;;5012565;28;20392;-72
2021/04/21 11:47:50;;;;;;;8.93;8.02;;;14.70;99.90;;;;;;5012273;28;20022;-72
2021/04/21 11:50:52;;;;;;;9.70;7.40;;;15.00;99.90;;;;;;5011363;28;20034;-72
2021/04/21 11:53:20;;;;;;;14.45;10.73;;;15.70;99.90;;;;;;4951908;29;20065;-72
2021/04/21 11:55:55;;;;;;;11.27;10.07;;;15.50;99.90;;;;;;5000862;28;20037;-72
2021/04/21 11:58:28;;;;;;;12.00;10.68;;;15.90;99.90;;;;;;5012462;28;20095;-73
2021/04/21 12:01:07;;;;;;;15.68;10.65;;;15.90;99.90;;;;;;5012628;28;20030;-72
2021/04/21 12:03:35;;;;;;;13.73;11.25;;;16.00;99.90;;;;;;4998808;28;20026;-73
2021/04/21 12:06:06;;;;;;;15.07;11.20;;;16.20;99.90;;;;;;5012494;28;20014;-73
2021/04/21 12:08:35;;;;;;;13.88;11.68;;;16.40;99.90;;;;;;5012399;28;20095;-74
2021/04/21 12:11:02;;;;;;;11.55;9.77;;;16.10;99.90;;;;;;5012378;28;20349;-74
2021/04/21 12:13:34;;;;;;;11.93;9.55;;;15.60;99.90;;;;;;5011922;28;20117;-74
2021/04/21 12:16:03;;;;;;;11.75;10.15;;;15.90;99.90;;;;;;5012307;28;20018;-73
2021/04/21 12:18:43;;;;;;;14.15;9.80;;;15.80;99.90;;;;;;5012150;28;20027;-73
2021/04/21 12:21:15;;;;;;;13.07;10.05;;;15.80;99.90;;;;;;5010678;28;20061;-73
2021/04/21 12:23:42;;;;;;;13.13;10.63;;;15.80;99.90;;;;;;5011917;28;20022;-73
2021/04/21 12:26:20;;;;;;;13.25;10.48;;;15.90;99.90;;;;;;5011948;28;20721;-73
2021/04/21 12:29:00;;;;;;;11.70;9.18;;;15.80;99.90;;;;;;5012131;28;20105;-73
2021/04/21 12:31:26;;;;;;;13.52;9.30;;;15.70;99.90;;;;;;5012133;28;20109;-73
2021/04/21 12:33:54;;;;;;;10.82;7.82;;;15.50;99.90;;;;;;5012114;28;20045;-73
2021/04/21 12:36:24;;;;;;;8.57;6.95;;;15.50;99.90;;;;;;5025266;28;20480;-73
2021/04/21 12:39:06;;;;;;;6.43;5.72;;;15.50;99.90;;;;;;5001852;28;20030;-73
2021/04/21 12:41:34;;;;;;;9.50;7.75;;;15.90;99.90;;;;;;5011522;28;20033;-73
2021/04/21 12:44:19;;;;;;;9.25;8.27;;;16.20;99.90;;;;;;5011524;28;20029;-73
2021/04/21 12:46:47;;;;;;;11.82;8.70;;;15.70;99.90;;;;;;5011940;28;20033;-73
2021/04/21 12:49:13;;;;;;;13.50;9.25;;;15.70;99.90;;;;;;5011992;28;20013;-73
2021/04/21 12:51:47;;;;;;;11.20;9.55;;;15.60;99.90;;;;;;5010593;28;20026;-73
2021/04/21 12:54:37;;;;;;;10.50;8.02;;;16.20;99.90;;;;;;5011724;28;20022;-73
2021/04/21 12:57:05;;;;;;;10.63;8.00;;;17.00;99.90;;;;;;5011950;28;20037;-73
2021/04/21 12:59:55;;;;;;;8.00;7.28;;;16.40;99.90;;;;;;5003694;28;20030;-73
2021/04/21 13:02:41;;;;;;;6.75;5.10;;;16.20;99.90;;;;;;5013704;28;20117;-74
2021/04/21 13:05:07;;;;;;;6.55;5.75;;;15.50;99.90;;;;;;5014238;28;20022;-73
2021/04/21 13:07:32;;;;;;;5.95;5.32;;;15.70;99.90;;;;;;5015751;28;20507;-75
2021/04/21 13:10:06;;;;;;;7.18;5.90;;;16.50;99.90;;;;;;5015656;28;20026;-74
2021/04/21 13:12:32;;;;;;;5.88;5.10;;;17.00;99.90;;;;;;5014271;28;20109;-74